sensor_id;sensor_type;location;lat;lon;timestamp;P1;durP1;ratioP1;P2;durP2;ratioP2
55170;SDS011;41060;47.510;8.680;2023-09-07T00:01:34;6.03;;;3.50;;
55170;SDS011;41060;47.510;8.680;2023-09-07T00:04:01;4.10;;;3.05;;
55170;SDS011;41060;47.510;8.680;2023-09-07T00:06:29;6.30;;;3.28;;
55170;SDS011;41060;47.510;8.680;2023-09-07T00:08:56;5.18;;;2.67;;
55170;SDS011;41060;47.510;8.680;2023-09-07T00:11:22;6.13;;;2.83;;
55170;SDS011;41060;47.510;8.680;2023-09-07T00:13:49;6.30;;;3.05;;
55170;SDS011;41060;47.510;8.680;2023-09-07T00:16:18;5.38;;;2.92;;
55170;SDS011;41060;47.510;8.680;2023-09-07T00:18:46;7.30;;;3.33;;
55170;SDS011;41060;47.510;8.680;2023-09-07T00:21:16;4.15;;;2.92;;
55170;SDS011;41060;47.510;8.680;2023-09-07T00:23:42;7.35;;;3.88;;
55170;SDS011;41060;47.510;8.680;2023-09-07T00:26:09;5.00;;;2.90;;
55170;SDS011;41060;47.510;8.680;2023-09-07T00:28:38;4.22;;;3.03;;
55170;SDS011;41060;47.510;8.680;2023-09-07T00:31:04;4.57;;;2.60;;
55170;SDS011;41060;47.510;8.680;2023-09-07T00:33:31;4.57;;;2.75;;
55170;SDS011;41060;47.510;8.680;2023-09-07T00:36:00;3.90;;;2.78;;
55170;SDS011;41060;47.510;8.680;2023-09-07T00:38:27;3.75;;;2.67;;
55170;SDS011;41060;47.510;8.680;2023-09-07T00:40:54;4.55;;;2.95;;
55170;SDS011;41060;47.510;8.680;2023-09-07T00:43:21;5.25;;;3.15;;
55170;SDS011;41060;47.510;8.680;2023-09-07T00:45:47;7.75;;;3.55;;
55170;SDS011;41060;47.510;8.680;2023-09-07T00:48:14;5.65;;;2.92;;
55170;SDS011;41060;47.510;8.680;2023-09-07T00:50:43;5.32;;;3.13;;
55170;SDS011;41060;47.510;8.680;2023-09-07T00:53:11;6.65;;;3.20;;
55170;SDS011;41060;47.510;8.680;2023-09-07T00:55:38;8.02;;;2.97;;
55170;SDS011;41060;47.510;8.680;2023-09-07T00:58:05;5.15;;;2.97;;
55170;SDS011;41060;47.510;8.680;2023-09-07T01:00:32;4.57;;;2.85;;
55170;SDS011;41060;47.510;8.680;2023-09-07T01:03:00;5.97;;;2.83;;
55170;SDS011;41060;47.510;8.680;2023-09-07T01:05:30;5.13;;;3.15;;
55170;SDS011;41060;47.510;8.680;2023-09-07T01:08:03;5.13;;;2.97;;
55170;SDS011;41060;47.510;8.680;2023-09-07T01:10:38;6.03;;;2.97;;
55170;SDS011;41060;47.510;8.680;2023-09-07T01:13:04;8.32;;;3.45;;
55170;SDS011;41060;47.510;8.680;2023-09-07T01:15:31;6.13;;;3.13;;
55170;SDS011;41060;47.510;8.680;2023-09-07T01:17:58;7.95;;;3.38;;
55170;SDS011;41060;47.510;8.680;2023-09-07T01:20:25;7.03;;;3.28;;
55170;SDS011;41060;47.510;8.680;2023-09-07T01:22:53;7.78;;;2.75;;
55170;SDS011;41060;47.510;8.680;2023-09-07T01:25:21;6.57;;;2.67;;
55170;SDS011;41060;47.510;8.680;2023-09-07T01:27:48;7.97;;;3.13;;
55170;SDS011;41060;47.510;8.680;2023-09-07T01:30:17;5.85;;;3.17;;
55170;SDS011;41060;47.510;8.680;2023-09-07T01:32:45;6.75;;;3.22;;
55170;SDS011;41060;47.510;8.680;2023-09-07T01:35:11;3.95;;;2.70;;
55170;SDS011;41060;47.510;8.680;2023-09-07T01:37:41;4.53;;;2.97;;
55170;SDS011;41060;47.510;8.680;2023-09-07T01:40:10;5.47;;;2.60;;
55170;SDS011;41060;47.510;8.680;2023-09-07T01:42:37;6.95;;;3.13;;
55170;SDS011;41060;47.510;8.680;2023-09-07T01:45:04;7.03;;;3.17;;
55170;SDS011;41060;47.510;8.680;2023-09-07T01:47:31;4.35;;;3.05;;
55170;SDS011;41060;47.510;8.680;2023-09-07T01:49:58;5.13;;;2.78;;
55170;SDS011;41060;47.510;8.680;2023-09-07T01:52:24;5.30;;;3.35;;
55170;SDS011;41060;47.510;8.680;2023-09-07T01:54:51;3.80;;;2.45;;
55170;SDS011;41060;47.510;8.680;2023-09-07T01:57:19;7.63;;;3.63;;
55170;SDS011;41060;47.510;8.680;2023-09-07T01:59:48;7.15;;;2.83;;
55170;SDS011;41060;47.510;8.680;2023-09-07T02:02:15;4.13;;;3.08;;
55170;SDS011;41060;47.510;8.680;2023-09-07T02:04:42;3.75;;;2.92;;
55170;SDS011;41060;47.510;8.680;2023-09-07T02:07:11;5.18;;;3.08;;
55170;SDS011;41060;47.510;8.680;2023-09-07T02:09:38;8.18;;;2.88;;
55170;SDS011;41060;47.510;8.680;2023-09-07T02:12:05;5.85;;;3.72;;
55170;SDS011;41060;47.510;8.680;2023-09-07T02:14:33;5.47;;;3.45;;
55170;SDS011;41060;47.510;8.680;2023-09-07T02:17:02;5.78;;;3.00;;
55170;SDS011;41060;47.510;8.680;2023-09-07T02:19:29;5.97;;;3.03;;
55170;SDS011;41060;47.510;8.680;2023-09-07T02:21:56;5.88;;;2.72;;
55170;SDS011;41060;47.510;8.680;2023-09-07T02:24:23;4.75;;;3.22;;
55170;SDS011;41060;47.510;8.680;2023-09-07T02:26:49;6.50;;;3.42;;
55170;SDS011;41060;47.510;8.680;2023-09-07T02:29:16;4.85;;;3.28;;
55170;SDS011;41060;47.510;8.680;2023-09-07T02:31:44;6.00;;;2.80;;
55170;SDS011;41060;47.510;8.680;2023-09-07T02:34:10;4.82;;;2.80;;
55170;SDS011;41060;47.510;8.680;2023-09-07T02:36:37;6.07;;;2.92;;
55170;SDS011;41060;47.510;8.680;2023-09-07T02:39:04;5.00;;;2.92;;
55170;SDS011;41060;47.510;8.680;2023-09-07T02:41:33;6.18;;;3.05;;
55170;SDS011;41060;47.510;8.680;2023-09-07T02:44:02;6.63;;;3.22;;
55170;SDS011;41060;47.510;8.680;2023-09-07T02:46:29;8.98;;;3.38;;
55170;SDS011;41060;47.510;8.680;2023-09-07T02:48:57;4.30;;;2.35;;
55170;SDS011;41060;47.510;8.680;2023-09-07T02:51:23;4.90;;;3.33;;
55170;SDS011;41060;47.510;8.680;2023-09-07T02:53:51;4.60;;;3.03;;
55170;SDS011;41060;47.510;8.680;2023-09-07T02:56:17;5.20;;;2.95;;
55170;SDS011;41060;47.510;8.680;2023-09-07T02:58:44;5.00;;;3.17;;
55170;SDS011;41060;47.510;8.680;2023-09-07T03:01:12;5.20;;;2.72;;
55170;SDS011;41060;47.510;8.680;2023-09-07T03:03:39;6.25;;;3.15;;
55170;SDS011;41060;47.510;8.680;2023-09-07T03:06:09;9.85;;;2.95;;
55170;SDS011;41060;47.510;8.680;2023-09-07T03:08:39;8.02;;;3.10;;
55170;SDS011;41060;47.510;8.680;2023-09-07T03:11:05;6.70;;;2.90;;
55170;SDS011;41060;47.510;8.680;2023-09-07T03:13:33;5.75;;;2.60;;
55170;SDS011;41060;47.510;8.680;2023-09-07T03:16:01;5.00;;;2.83;;
55170;SDS011;41060;47.510;8.680;2023-09-07T03:18:28;4.60;;;2.95;;
55170;SDS011;41060;47.510;8.680;2023-09-07T03:20:55;5.90;;;2.88;;
55170;SDS011;41060;47.510;8.680;2023-09-07T03:23:26;5.63;;;2.90;;
55170;SDS011;41060;47.510;8.680;2023-09-07T03:25:53;4.55;;;2.55;;
55170;SDS011;41060;47.510;8.680;2023-09-07T03:28:19;5.28;;;3.63;;
55170;SDS011;41060;47.510;8.680;2023-09-07T03:30:46;4.30;;;2.67;;
55170;SDS011;41060;47.510;8.680;2023-09-07T03:33:13;6.18;;;3.05;;
55170;SDS011;41060;47.510;8.680;2023-09-07T03:35:39;5.30;;;3.15;;
55170;SDS011;41060;47.510;8.680;2023-09-07T03:38:07;5.80;;;3.10;;
55170;SDS011;41060;47.510;8.680;2023-09-07T03:40:35;4.65;;;3.08;;
55170;SDS011;41060;47.510;8.680;2023-09-07T03:43:01;3.72;;;2.72;;
55170;SDS011;41060;47.510;8.680;2023-09-07T03:45:29;7.15;;;2.88;;
55170;SDS011;41060;47.510;8.680;2023-09-07T03:47:55;7.22;;;3.00;;
55170;SDS011;41060;47.510;8.680;2023-09-07T03:50:22;5.72;;;3.83;;
55170;SDS011;41060;47.510;8.680;2023-09-07T03:52:49;5.95;;;3.38;;
55170;SDS011;41060;47.510;8.680;2023-09-07T03:55:16;4.97;;;2.60;;
55170;SDS011;41060;47.510;8.680;2023-09-07T03:57:45;5.72;;;3.08;;
55170;SDS011;41060;47.510;8.680;2023-09-07T04:00:16;6.15;;;2.78;;
55170;SDS011;41060;47.510;8.680;2023-09-07T04:02:43;7.43;;;3.72;;
55170;SDS011;41060;47.510;8.680;2023-09-07T04:05:10;6.45;;;2.80;;
55170;SDS011;41060;47.510;8.680;2023-09-07T04:07:37;6.18;;;3.15;;
55170;SDS011;41060;47.510;8.680;2023-09-07T04:10:04;5.93;;;2.88;;
55170;SDS011;41060;47.510;8.680;2023-09-07T04:12:31;5.20;;;2.88;;
55170;SDS011;41060;47.510;8.680;2023-09-07T04:15:01;6.43;;;3.25;;
55170;SDS011;41060;47.510;8.680;2023-09-07T04:17:28;4.93;;;2.63;;
55170;SDS011;41060;47.510;8.680;2023-09-07T04:19:55;4.30;;;3.10;;
55170;SDS011;41060;47.510;8.680;2023-09-07T04:22:22;6.43;;;3.42;;
55170;SDS011;41060;47.510;8.680;2023-09-07T04:24:51;7.88;;;3.70;;
55170;SDS011;41060;47.510;8.680;2023-09-07T04:27:18;6.70;;;3.03;;
55170;SDS011;41060;47.510;8.680;2023-09-07T04:29:47;7.45;;;3.47;;
55170;SDS011;41060;47.510;8.680;2023-09-07T04:32:16;5.45;;;3.00;;
55170;SDS011;41060;47.510;8.680;2023-09-07T04:34:42;5.75;;;3.03;;
55170;SDS011;41060;47.510;8.680;2023-09-07T04:37:10;6.00;;;3.03;;
55170;SDS011;41060;47.510;8.680;2023-09-07T04:39:38;5.85;;;2.92;;
55170;SDS011;41060;47.510;8.680;2023-09-07T04:42:05;5.07;;;2.85;;
55170;SDS011;41060;47.510;8.680;2023-09-07T04:44:32;5.55;;;2.35;;
55170;SDS011;41060;47.510;8.680;2023-09-07T04:46:58;7.97;;;3.30;;
55170;SDS011;41060;47.510;8.680;2023-09-07T04:49:26;5.10;;;3.00;;
55170;SDS011;41060;47.510;8.680;2023-09-07T04:51:53;10.10;;;3.80;;
55170;SDS011;41060;47.510;8.680;2023-09-07T04:54:20;5.68;;;3.30;;
55170;SDS011;41060;47.510;8.680;2023-09-07T04:56:47;6.82;;;2.78;;
55170;SDS011;41060;47.510;8.680;2023-09-07T04:59:14;6.00;;;2.67;;
55170;SDS011;41060;47.510;8.680;2023-09-07T05:01:40;6.47;;;3.38;;
55170;SDS011;41060;47.510;8.680;2023-09-07T05:04:07;10.25;;;3.33;;
55170;SDS011;41060;47.510;8.680;2023-09-07T05:06:38;6.60;;;3.30;;
55170;SDS011;41060;47.510;8.680;2023-09-07T05:09:06;9.93;;;3.70;;
55170;SDS011;41060;47.510;8.680;2023-09-07T05:11:34;7.18;;;3.53;;
55170;SDS011;41060;47.510;8.680;2023-09-07T05:14:00;7.45;;;3.45;;
55170;SDS011;41060;47.510;8.680;2023-09-07T05:16:27;5.53;;;3.33;;
55170;SDS011;41060;47.510;8.680;2023-09-07T05:18:54;8.38;;;3.28;;
55170;SDS011;41060;47.510;8.680;2023-09-07T05:21:21;6.47;;;3.13;;
55170;SDS011;41060;47.510;8.680;2023-09-07T05:23:48;7.88;;;2.47;;
55170;SDS011;41060;47.510;8.680;2023-09-07T05:26:20;7.68;;;3.60;;
55170;SDS011;41060;47.510;8.680;2023-09-07T05:28:49;4.25;;;2.70;;
55170;SDS011;41060;47.510;8.680;2023-09-07T05:31:16;6.32;;;3.03;;
55170;SDS011;41060;47.510;8.680;2023-09-07T05:33:42;5.40;;;2.60;;
55170;SDS011;41060;47.510;8.680;2023-09-07T05:36:09;6.45;;;3.08;;
55170;SDS011;41060;47.510;8.680;2023-09-07T05:38:36;10.85;;;2.90;;
55170;SDS011;41060;47.510;8.680;2023-09-07T05:41:04;4.30;;;2.65;;
55170;SDS011;41060;47.510;8.680;2023-09-07T05:43:30;4.78;;;2.92;;
55170;SDS011;41060;47.510;8.680;2023-09-07T05:45:59;4.43;;;2.83;;
55170;SDS011;41060;47.510;8.680;2023-09-07T05:48:26;8.77;;;2.80;;
55170;SDS011;41060;47.510;8.680;2023-09-07T05:50:52;8.68;;;3.08;;
55170;SDS011;41060;47.510;8.680;2023-09-07T05:53:19;4.95;;;2.58;;
55170;SDS011;41060;47.510;8.680;2023-09-07T05:55:46;8.43;;;3.20;;
55170;SDS011;41060;47.510;8.680;2023-09-07T05:58:14;6.97;;;3.28;;
55170;SDS011;41060;47.510;8.680;2023-09-07T06:00:41;7.88;;;2.83;;
55170;SDS011;41060;47.510;8.680;2023-09-07T06:03:08;5.07;;;3.00;;
55170;SDS011;41060;47.510;8.680;2023-09-07T06:05:35;4.05;;;3.00;;
55170;SDS011;41060;47.510;8.680;2023-09-07T06:08:04;6.53;;;3.20;;
55170;SDS011;41060;47.510;8.680;2023-09-07T06:10:32;10.63;;;3.85;;
55170;SDS011;41060;47.510;8.680;2023-09-07T06:12:59;6.97;;;4.25;;
55170;SDS011;41060;47.510;8.680;2023-09-07T06:15:28;11.82;;;3.60;;
55170;SDS011;41060;47.510;8.680;2023-09-07T06:17:55;4.90;;;3.17;;
55170;SDS011;41060;47.510;8.680;2023-09-07T06:20:22;4.85;;;3.25;;
55170;SDS011;41060;47.510;8.680;2023-09-07T06:22:49;8.10;;;4.03;;
55170;SDS011;41060;47.510;8.680;2023-09-07T06:25:15;7.68;;;3.85;;
55170;SDS011;41060;47.510;8.680;2023-09-07T06:27:42;6.30;;;4.00;;
55170;SDS011;41060;47.510;8.680;2023-09-07T06:30:09;6.90;;;3.42;;
55170;SDS011;41060;47.510;8.680;2023-09-07T06:32:37;5.43;;;3.90;;
55170;SDS011;41060;47.510;8.680;2023-09-07T06:35:05;7.38;;;4.32;;
55170;SDS011;41060;47.510;8.680;2023-09-07T06:37:33;6.63;;;4.10;;
55170;SDS011;41060;47.510;8.680;2023-09-07T06:40:00;8.63;;;4.60;;
55170;SDS011;41060;47.510;8.680;2023-09-07T06:42:28;7.93;;;4.15;;
55170;SDS011;41060;47.510;8.680;2023-09-07T06:44:56;8.32;;;4.40;;
55170;SDS011;41060;47.510;8.680;2023-09-07T06:47:23;8.40;;;4.53;;
55170;SDS011;41060;47.510;8.680;2023-09-07T06:49:50;7.40;;;4.45;;
55170;SDS011;41060;47.510;8.680;2023-09-07T06:52:17;7.03;;;4.15;;
55170;SDS011;41060;47.510;8.680;2023-09-07T06:54:44;8.27;;;4.63;;
55170;SDS011;41060;47.510;8.680;2023-09-07T06:57:10;9.38;;;4.53;;
55170;SDS011;41060;47.510;8.680;2023-09-07T06:59:37;9.50;;;5.07;;
55170;SDS011;41060;47.510;8.680;2023-09-07T07:02:04;7.32;;;4.55;;
55170;SDS011;41060;47.510;8.680;2023-09-07T07:04:31;10.43;;;5.28;;
55170;SDS011;41060;47.510;8.680;2023-09-07T07:06:59;7.70;;;4.85;;
55170;SDS011;41060;47.510;8.680;2023-09-07T07:09:29;9.90;;;5.18;;
55170;SDS011;41060;47.510;8.680;2023-09-07T07:11:55;8.90;;;4.95;;
55170;SDS011;41060;47.510;8.680;2023-09-07T07:14:23;8.00;;;4.65;;
55170;SDS011;41060;47.510;8.680;2023-09-07T07:16:49;9.00;;;4.78;;
55170;SDS011;41060;47.510;8.680;2023-09-07T07:19:16;10.77;;;4.85;;
55170;SDS011;41060;47.510;8.680;2023-09-07T07:21:43;9.43;;;4.88;;
55170;SDS011;41060;47.510;8.680;2023-09-07T07:24:11;6.63;;;4.10;;
55170;SDS011;41060;47.510;8.680;2023-09-07T07:26:37;9.07;;;4.45;;
55170;SDS011;41060;47.510;8.680;2023-09-07T07:29:06;6.32;;;4.63;;
55170;SDS011;41060;47.510;8.680;2023-09-07T07:31:35;7.95;;;4.97;;
55170;SDS011;41060;47.510;8.680;2023-09-07T07:34:01;8.45;;;5.15;;
55170;SDS011;41060;47.510;8.680;2023-09-07T07:36:28;8.68;;;4.88;;
55170;SDS011;41060;47.510;8.680;2023-09-07T07:38:56;5.70;;;4.05;;
55170;SDS011;41060;47.510;8.680;2023-09-07T07:41:23;7.22;;;4.72;;
55170;SDS011;41060;47.510;8.680;2023-09-07T07:43:51;10.43;;;5.10;;
55170;SDS011;41060;47.510;8.680;2023-09-07T07:46:17;9.85;;;4.93;;
55170;SDS011;41060;47.510;8.680;2023-09-07T07:48:44;8.80;;;4.82;;
55170;SDS011;41060;47.510;8.680;2023-09-07T07:51:12;7.40;;;4.28;;
55170;SDS011;41060;47.510;8.680;2023-09-07T07:53:38;8.75;;;5.13;;
55170;SDS011;41060;47.510;8.680;2023-09-07T07:56:04;6.78;;;4.75;;
55170;SDS011;41060;47.510;8.680;2023-09-07T07:58:33;9.00;;;4.95;;
55170;SDS011;41060;47.510;8.680;2023-09-07T08:01:02;8.05;;;5.38;;
55170;SDS011;41060;47.510;8.680;2023-09-07T08:03:28;9.38;;;4.53;;
55170;SDS011;41060;47.510;8.680;2023-09-07T08:05:58;7.63;;;4.00;;
55170;SDS011;41060;47.510;8.680;2023-09-07T08:08:24;9.02;;;4.63;;
55170;SDS011;41060;47.510;8.680;2023-09-07T08:10:51;7.63;;;4.88;;
55170;SDS011;41060;47.510;8.680;2023-09-07T08:13:18;7.68;;;4.38;;
55170;SDS011;41060;47.510;8.680;2023-09-07T08:15:46;8.27;;;4.90;;
55170;SDS011;41060;47.510;8.680;2023-09-07T08:18:14;11.77;;;5.07;;
55170;SDS011;41060;47.510;8.680;2023-09-07T08:20:41;8.77;;;4.28;;
55170;SDS011;41060;47.510;8.680;2023-09-07T08:23:07;7.15;;;4.35;;
55170;SDS011;41060;47.510;8.680;2023-09-07T08:25:35;9.68;;;4.72;;
55170;SDS011;41060;47.510;8.680;2023-09-07T08:28:04;11.55;;;5.00;;
55170;SDS011;41060;47.510;8.680;2023-09-07T08:30:32;7.78;;;4.43;;
55170;SDS011;41060;47.510;8.680;2023-09-07T08:33:00;6.80;;;4.20;;
55170;SDS011;41060;47.510;8.680;2023-09-07T08:35:28;8.85;;;4.95;;
55170;SDS011;41060;47.510;8.680;2023-09-07T08:37:55;9.40;;;5.43;;
55170;SDS011;41060;47.510;8.680;2023-09-07T08:40:23;6.82;;;4.55;;
55170;SDS011;41060;47.510;8.680;2023-09-07T08:42:53;8.85;;;5.28;;
55170;SDS011;41060;47.510;8.680;2023-09-07T08:45:20;7.30;;;4.40;;
55170;SDS011;41060;47.510;8.680;2023-09-07T08:47:48;9.18;;;4.97;;
55170;SDS011;41060;47.510;8.680;2023-09-07T08:50:17;8.20;;;5.05;;
55170;SDS011;41060;47.510;8.680;2023-09-07T08:52:45;10.10;;;4.93;;
55170;SDS011;41060;47.510;8.680;2023-09-07T08:55:12;8.27;;;4.43;;
55170;SDS011;41060;47.510;8.680;2023-09-07T08:57:40;6.18;;;4.55;;
55170;SDS011;41060;47.510;8.680;2023-09-07T09:00:07;7.85;;;4.70;;
55170;SDS011;41060;47.510;8.680;2023-09-07T09:05:06;8.57;;;5.03;;
55170;SDS011;41060;47.510;8.680;2023-09-07T09:07:36;8.70;;;4.75;;
55170;SDS011;41060;47.510;8.680;2023-09-07T09:10:04;8.05;;;4.35;;
55170;SDS011;41060;47.510;8.680;2023-09-07T09:12:31;7.47;;;4.72;;
55170;SDS011;41060;47.510;8.680;2023-09-07T09:14:58;7.50;;;4.82;;
55170;SDS011;41060;47.510;8.680;2023-09-07T09:17:26;8.63;;;5.40;;
55170;SDS011;41060;47.510;8.680;2023-09-07T09:19:52;7.55;;;4.75;;
55170;SDS011;41060;47.510;8.680;2023-09-07T09:22:19;7.93;;;5.18;;
55170;SDS011;41060;47.510;8.680;2023-09-07T09:24:48;11.27;;;4.40;;
55170;SDS011;41060;47.510;8.680;2023-09-07T09:27:15;8.13;;;4.57;;
55170;SDS011;41060;47.510;8.680;2023-09-07T09:29:44;8.35;;;4.93;;
55170;SDS011;41060;47.510;8.680;2023-09-07T09:32:13;7.47;;;5.25;;
55170;SDS011;41060;47.510;8.680;2023-09-07T09:34:40;6.43;;;4.55;;
55170;SDS011;41060;47.510;8.680;2023-09-07T09:37:12;7.47;;;4.65;;
55170;SDS011;41060;47.510;8.680;2023-09-07T09:39:41;8.23;;;4.93;;
55170;SDS011;41060;47.510;8.680;2023-09-07T09:42:09;7.85;;;4.55;;
55170;SDS011;41060;47.510;8.680;2023-09-07T09:44:38;7.60;;;4.50;;
55170;SDS011;41060;47.510;8.680;2023-09-07T09:47:07;10.82;;;4.00;;
55170;SDS011;41060;47.510;8.680;2023-09-07T09:49:34;7.93;;;3.90;;
55170;SDS011;41060;47.510;8.680;2023-09-07T09:52:01;7.43;;;4.95;;
55170;SDS011;41060;47.510;8.680;2023-09-07T09:54:30;7.55;;;4.78;;
55170;SDS011;41060;47.510;8.680;2023-09-07T09:57:01;6.70;;;3.85;;
55170;SDS011;41060;47.510;8.680;2023-09-07T09:59:29;8.40;;;4.40;;
55170;SDS011;41060;47.510;8.680;2023-09-07T10:01:56;5.88;;;4.05;;
55170;SDS011;41060;47.510;8.680;2023-09-07T10:04:23;9.05;;;5.22;;
55170;SDS011;41060;47.510;8.680;2023-09-07T10:06:53;7.88;;;4.50;;
55170;SDS011;41060;47.510;8.680;2023-09-07T10:09:21;7.03;;;4.35;;
55170;SDS011;41060;47.510;8.680;2023-09-07T10:11:51;7.38;;;4.50;;
55170;SDS011;41060;47.510;8.680;2023-09-07T10:14:19;8.50;;;4.78;;
55170;SDS011;41060;47.510;8.680;2023-09-07T10:16:49;6.68;;;4.20;;
55170;SDS011;41060;47.510;8.680;2023-09-07T10:19:18;7.22;;;4.18;;
55170;SDS011;41060;47.510;8.680;2023-09-07T10:21:45;7.50;;;3.90;;
55170;SDS011;41060;47.510;8.680;2023-09-07T10:24:23;5.38;;;3.75;;
55170;SDS011;41060;47.510;8.680;2023-09-07T10:27:00;5.63;;;4.10;;
55170;SDS011;41060;47.510;8.680;2023-09-07T10:29:28;5.07;;;3.53;;
55170;SDS011;41060;47.510;8.680;2023-09-07T10:31:56;6.95;;;4.20;;
55170;SDS011;41060;47.510;8.680;2023-09-07T10:34:34;6.38;;;4.00;;
55170;SDS011;41060;47.510;8.680;2023-09-07T10:37:03;7.22;;;4.72;;
55170;SDS011;41060;47.510;8.680;2023-09-07T10:39:31;6.25;;;4.30;;
55170;SDS011;41060;47.510;8.680;2023-09-07T10:41:58;6.68;;;4.45;;
55170;SDS011;41060;47.510;8.680;2023-09-07T10:44:25;6.20;;;4.57;;
55170;SDS011;41060;47.510;8.680;2023-09-07T10:46:51;5.97;;;3.83;;
55170;SDS011;41060;47.510;8.680;2023-09-07T10:49:24;6.75;;;4.22;;
55170;SDS011;41060;47.510;8.680;2023-09-07T10:51:51;6.30;;;4.25;;
55170;SDS011;41060;47.510;8.680;2023-09-07T10:54:18;7.82;;;4.10;;
55170;SDS011;41060;47.510;8.680;2023-09-07T10:56:51;6.45;;;4.25;;
55170;SDS011;41060;47.510;8.680;2023-09-07T10:59:17;5.35;;;3.90;;
55170;SDS011;41060;47.510;8.680;2023-09-07T11:01:44;6.90;;;4.25;;
55170;SDS011;41060;47.510;8.680;2023-09-07T11:04:11;6.25;;;4.28;;
55170;SDS011;41060;47.510;8.680;2023-09-07T11:06:39;6.78;;;4.05;;
55170;SDS011;41060;47.510;8.680;2023-09-07T11:09:08;6.80;;;3.72;;
55170;SDS011;41060;47.510;8.680;2023-09-07T11:11:36;7.00;;;4.30;;
55170;SDS011;41060;47.510;8.680;2023-09-07T11:14:02;8.30;;;5.07;;
55170;SDS011;41060;47.510;8.680;2023-09-07T11:16:30;8.40;;;3.95;;
55170;SDS011;41060;47.510;8.680;2023-09-07T11:18:57;7.85;;;4.45;;
55170;SDS011;41060;47.510;8.680;2023-09-07T11:21:28;8.30;;;4.85;;
55170;SDS011;41060;47.510;8.680;2023-09-07T11:23:57;6.30;;;4.28;;
55170;SDS011;41060;47.510;8.680;2023-09-07T11:26:25;8.88;;;4.25;;
55170;SDS011;41060;47.510;8.680;2023-09-07T11:28:51;6.60;;;3.80;;
55170;SDS011;41060;47.510;8.680;2023-09-07T11:31:18;5.65;;;4.25;;
55170;SDS011;41060;47.510;8.680;2023-09-07T11:33:49;6.75;;;4.15;;
55170;SDS011;41060;47.510;8.680;2023-09-07T11:36:16;6.38;;;3.70;;
55170;SDS011;41060;47.510;8.680;2023-09-07T11:38:43;8.27;;;4.43;;
55170;SDS011;41060;47.510;8.680;2023-09-07T11:41:12;6.38;;;4.07;;
55170;SDS011;41060;47.510;8.680;2023-09-07T11:43:39;5.18;;;3.65;;
55170;SDS011;41060;47.510;8.680;2023-09-07T11:46:07;5.20;;;3.78;;
55170;SDS011;41060;47.510;8.680;2023-09-07T11:48:36;6.45;;;4.07;;
55170;SDS011;41060;47.510;8.680;2023-09-07T11:51:03;7.30;;;4.10;;
55170;SDS011;41060;47.510;8.680;2023-09-07T11:53:29;6.50;;;4.05;;
55170;SDS011;41060;47.510;8.680;2023-09-07T11:55:56;5.10;;;3.67;;
55170;SDS011;41060;47.510;8.680;2023-09-07T11:58:25;5.90;;;4.28;;
55170;SDS011;41060;47.510;8.680;2023-09-07T12:00:52;7.10;;;3.85;;
55170;SDS011;41060;47.510;8.680;2023-09-07T12:03:20;5.00;;;3.85;;
55170;SDS011;41060;47.510;8.680;2023-09-07T12:05:47;5.72;;;3.75;;
55170;SDS011;41060;47.510;8.680;2023-09-07T12:08:13;7.03;;;4.00;;
55170;SDS011;41060;47.510;8.680;2023-09-07T12:10:41;5.97;;;4.07;;
55170;SDS011;41060;47.510;8.680;2023-09-07T12:13:07;5.88;;;3.60;;
55170;SDS011;41060;47.510;8.680;2023-09-07T12:15:35;5.55;;;3.85;;
55170;SDS011;41060;47.510;8.680;2023-09-07T12:18:05;5.15;;;3.60;;
55170;SDS011;41060;47.510;8.680;2023-09-07T12:20:32;5.07;;;3.85;;
55170;SDS011;41060;47.510;8.680;2023-09-07T12:22:59;5.25;;;3.53;;
55170;SDS011;41060;47.510;8.680;2023-09-07T12:25:27;5.85;;;4.05;;
55170;SDS011;41060;47.510;8.680;2023-09-07T12:27:54;4.63;;;3.80;;
55170;SDS011;41060;47.510;8.680;2023-09-07T12:30:21;4.47;;;3.35;;
55170;SDS011;41060;47.510;8.680;2023-09-07T12:32:51;4.60;;;3.92;;
55170;SDS011;41060;47.510;8.680;2023-09-07T12:35:17;7.07;;;4.00;;
55170;SDS011;41060;47.510;8.680;2023-09-07T12:37:50;5.38;;;3.50;;
55170;SDS011;41060;47.510;8.680;2023-09-07T12:40:17;10.13;;;4.13;;
55170;SDS011;41060;47.510;8.680;2023-09-07T12:42:44;4.32;;;3.50;;
55170;SDS011;41060;47.510;8.680;2023-09-07T12:45:12;5.00;;;3.47;;
55170;SDS011;41060;47.510;8.680;2023-09-07T12:47:39;5.05;;;3.30;;
55170;SDS011;41060;47.510;8.680;2023-09-07T12:50:08;7.57;;;4.00;;
55170;SDS011;41060;47.510;8.680;2023-09-07T12:52:36;6.22;;;3.42;;
55170;SDS011;41060;47.510;8.680;2023-09-07T12:55:03;4.63;;;3.58;;
55170;SDS011;41060;47.510;8.680;2023-09-07T12:57:30;4.78;;;3.85;;
55170;SDS011;41060;47.510;8.680;2023-09-07T13:00:00;7.20;;;3.80;;
55170;SDS011;41060;47.510;8.680;2023-09-07T13:02:26;5.53;;;3.80;;
55170;SDS011;41060;47.510;8.680;2023-09-07T13:04:53;6.90;;;3.97;;
55170;SDS011;41060;47.510;8.680;2023-09-07T13:07:24;5.88;;;3.63;;
55170;SDS011;41060;47.510;8.680;2023-09-07T13:09:51;5.25;;;3.50;;
55170;SDS011;41060;47.510;8.680;2023-09-07T13:12:18;5.88;;;3.30;;
55170;SDS011;41060;47.510;8.680;2023-09-07T13:14:45;3.80;;;2.92;;
55170;SDS011;41060;47.510;8.680;2023-09-07T13:17:12;3.88;;;3.25;;
55170;SDS011;41060;47.510;8.680;2023-09-07T13:19:40;4.57;;;3.42;;
55170;SDS011;41060;47.510;8.680;2023-09-07T13:22:08;5.05;;;3.42;;
55170;SDS011;41060;47.510;8.680;2023-09-07T13:24:36;4.65;;;3.42;;
55170;SDS011;41060;47.510;8.680;2023-09-07T13:27:05;4.93;;;3.38;;
55170;SDS011;41060;47.510;8.680;2023-09-07T13:29:32;4.82;;;3.20;;
55170;SDS011;41060;47.510;8.680;2023-09-07T13:32:02;4.82;;;3.42;;
55170;SDS011;41060;47.510;8.680;2023-09-07T13:34:29;5.80;;;2.95;;
55170;SDS011;41060;47.510;8.680;2023-09-07T13:36:56;4.82;;;3.28;;
55170;SDS011;41060;47.510;8.680;2023-09-07T13:39:23;4.10;;;2.80;;
55170;SDS011;41060;47.510;8.680;2023-09-07T13:41:51;5.63;;;3.00;;
55170;SDS011;41060;47.510;8.680;2023-09-07T13:44:18;4.90;;;3.15;;
55170;SDS011;41060;47.510;8.680;2023-09-07T13:46:47;4.00;;;3.15;;
55170;SDS011;41060;47.510;8.680;2023-09-07T13:49:13;5.75;;;3.72;;
55170;SDS011;41060;47.510;8.680;2023-09-07T13:51:40;5.25;;;3.22;;
55170;SDS011;41060;47.510;8.680;2023-09-07T13:54:07;3.28;;;2.72;;
55170;SDS011;41060;47.510;8.680;2023-09-07T13:56:34;4.20;;;2.85;;
55170;SDS011;41060;47.510;8.680;2023-09-07T13:59:03;4.22;;;3.22;;
55170;SDS011;41060;47.510;8.680;2023-09-07T14:01:29;4.80;;;2.88;;
55170;SDS011;41060;47.510;8.680;2023-09-07T14:03:56;3.47;;;2.70;;
55170;SDS011;41060;47.510;8.680;2023-09-07T14:06:24;5.50;;;3.10;;
55170;SDS011;41060;47.510;8.680;2023-09-07T14:08:50;5.05;;;2.90;;
55170;SDS011;41060;47.510;8.680;2023-09-07T14:11:17;5.78;;;3.05;;
55170;SDS011;41060;47.510;8.680;2023-09-07T14:13:44;4.40;;;2.95;;
55170;SDS011;41060;47.510;8.680;2023-09-07T14:16:16;3.10;;;2.45;;
55170;SDS011;41060;47.510;8.680;2023-09-07T14:18:43;5.97;;;3.30;;
55170;SDS011;41060;47.510;8.680;2023-09-07T14:21:10;4.20;;;3.08;;
55170;SDS011;41060;47.510;8.680;2023-09-07T14:23:39;3.80;;;2.60;;
55170;SDS011;41060;47.510;8.680;2023-09-07T14:26:07;6.28;;;2.97;;
55170;SDS011;41060;47.510;8.680;2023-09-07T14:28:38;5.78;;;3.78;;
55170;SDS011;41060;47.510;8.680;2023-09-07T14:31:04;3.33;;;2.75;;
55170;SDS011;41060;47.510;8.680;2023-09-07T14:33:34;4.20;;;3.15;;
55170;SDS011;41060;47.510;8.680;2023-09-07T14:36:04;6.18;;;3.08;;
55170;SDS011;41060;47.510;8.680;2023-09-07T14:38:31;3.70;;;2.80;;
55170;SDS011;41060;47.510;8.680;2023-09-07T14:40:59;4.72;;;2.92;;
55170;SDS011;41060;47.510;8.680;2023-09-07T14:43:26;3.88;;;2.72;;
55170;SDS011;41060;47.510;8.680;2023-09-07T14:45:54;4.40;;;3.17;;
55170;SDS011;41060;47.510;8.680;2023-09-07T14:48:20;5.30;;;2.72;;
55170;SDS011;41060;47.510;8.680;2023-09-07T14:50:49;3.75;;;2.88;;
55170;SDS011;41060;47.510;8.680;2023-09-07T14:53:17;5.50;;;3.53;;